sensor_id;sensor_type;location;lat;lon;timestamp;P1;durP1;ratioP1;P2;durP2;ratioP2
16272;SDS011;8244;50.044;9.006;2022-09-30T00:04:29;8.40;;;5.00;;
16272;SDS011;8244;50.044;9.006;2022-09-30T00:09:31;10.20;;;5.20;;
16272;SDS011;8244;50.044;9.006;2022-09-30T00:14:34;8.17;;;4.40;;
16272;SDS011;8244;50.044;9.006;2022-09-30T00:19:36;11.20;;;4.90;;
16272;SDS011;8244;50.044;9.006;2022-09-30T00:24:38;8.90;;;4.50;;
16272;SDS011;8244;50.044;9.006;2022-09-30T00:29:41;10.47;;;4.70;;
16272;SDS011;8244;50.044;9.006;2022-09-30T00:34:43;7.83;;;4.67;;
16272;SDS011;8244;50.044;9.006;2022-09-30T00:39:45;11.10;;;5.30;;
16272;SDS011;8244;50.044;9.006;2022-09-30T00:44:52;10.60;;;5.27;;
16272;SDS011;8244;50.044;9.006;2022-09-30T00:49:56;9.10;;;4.77;;
16272;SDS011;8244;50.044;9.006;2022-09-30T00:54:59;9.10;;;4.80;;
16272;SDS011;8244;50.044;9.006;2022-09-30T01:00:06;7.87;;;3.87;;
16272;SDS011;8244;50.044;9.006;2022-09-30T01:05:08;8.50;;;4.30;;
16272;SDS011;8244;50.044;9.006;2022-09-30T01:10:12;7.37;;;4.40;;
16272;SDS011;8244;50.044;9.006;2022-09-30T01:15:15;9.20;;;4.10;;
16272;SDS011;8244;50.044;9.006;2022-09-30T01:20:23;6.77;;;4.17;;
16272;SDS011;8244;50.044;9.006;2022-09-30T01:25:45;10.33;;;4.87;;
16272;SDS011;8244;50.044;9.006;2022-09-30T01:31:05;7.83;;;4.63;;
16272;SDS011;8244;50.044;9.006;2022-09-30T01:36:17;7.90;;;5.00;;
16272;SDS011;8244;50.044;9.006;2022-09-30T01:41:26;7.57;;;4.60;;
16272;SDS011;8244;50.044;9.006;2022-09-30T01:46:38;7.30;;;4.57;;
16272;SDS011;8244;50.044;9.006;2022-09-30T01:51:44;9.13;;;5.33;;
16272;SDS011;8244;50.044;9.006;2022-09-30T01:56:54;7.77;;;4.90;;
16272;SDS011;8244;50.044;9.006;2022-09-30T02:02:03;10.80;;;4.93;;
16272;SDS011;8244;50.044;9.006;2022-09-30T02:07:11;8.63;;;4.20;;
16272;SDS011;8244;50.044;9.006;2022-09-30T02:12:18;9.80;;;4.60;;
16272;SDS011;8244;50.044;9.006;2022-09-30T02:17:23;8.47;;;4.50;;
16272;SDS011;8244;50.044;9.006;2022-09-30T02:22:29;7.03;;;3.90;;
16272;SDS011;8244;50.044;9.006;2022-09-30T02:27:36;7.23;;;4.20;;
16272;SDS011;8244;50.044;9.006;2022-09-30T02:32:43;12.83;;;4.50;;
16272;SDS011;8244;50.044;9.006;2022-09-30T02:37:49;12.23;;;4.33;;
16272;SDS011;8244;50.044;9.006;2022-09-30T02:42:54;7.83;;;4.10;;
16272;SDS011;8244;50.044;9.006;2022-09-30T02:48:07;5.93;;;3.90;;
16272;SDS011;8244;50.044;9.006;2022-09-30T02:53:19;8.23;;;3.90;;
16272;SDS011;8244;50.044;9.006;2022-09-30T02:58:26;6.53;;;4.03;;
16272;SDS011;8244;50.044;9.006;2022-09-30T03:03:31;8.70;;;3.77;;
16272;SDS011;8244;50.044;9.006;2022-09-30T03:08:35;6.30;;;3.87;;
16272;SDS011;8244;50.044;9.006;2022-09-30T03:13:50;6.90;;;3.87;;
16272;SDS011;8244;50.044;9.006;2022-09-30T03:19:15;7.07;;;4.33;;
16272;SDS011;8244;50.044;9.006;2022-09-30T03:24:31;8.50;;;4.10;;
16272;SDS011;8244;50.044;9.006;2022-09-30T03:29:44;10.37;;;4.23;;
16272;SDS011;8244;50.044;9.006;2022-09-30T03:34:58;8.70;;;4.10;;
16272;SDS011;8244;50.044;9.006;2022-09-30T03:40:05;7.93;;;4.10;;
16272;SDS011;8244;50.044;9.006;2022-09-30T03:45:18;5.90;;;3.73;;
16272;SDS011;8244;50.044;9.006;2022-09-30T03:50:27;9.20;;;4.17;;
16272;SDS011;8244;50.044;9.006;2022-09-30T03:55:31;5.90;;;4.10;;
16272;SDS011;8244;50.044;9.006;2022-09-30T04:00:33;12.20;;;5.17;;
16272;SDS011;8244;50.044;9.006;2022-09-30T04:05:36;10.27;;;4.90;;
16272;SDS011;8244;50.044;9.006;2022-09-30T04:10:38;10.07;;;4.77;;
16272;SDS011;8244;50.044;9.006;2022-09-30T04:15:40;7.90;;;4.53;;
16272;SDS011;8244;50.044;9.006;2022-09-30T04:20:43;11.20;;;4.83;;
16272;SDS011;8244;50.044;9.006;2022-09-30T04:25:50;8.37;;;4.90;;
16272;SDS011;8244;50.044;9.006;2022-09-30T04:30:52;15.03;;;8.03;;
16272;SDS011;8244;50.044;9.006;2022-09-30T04:35:56;14.40;;;7.73;;
16272;SDS011;8244;50.044;9.006;2022-09-30T04:41:00;20.40;;;8.37;;
16272;SDS011;8244;50.044;9.006;2022-09-30T04:46:04;34.27;;;8.63;;
16272;SDS011;8244;50.044;9.006;2022-09-30T04:51:08;28.50;;;6.77;;
16272;SDS011;8244;50.044;9.006;2022-09-30T04:56:09;62.63;;;7.17;;
16272;SDS011;8244;50.044;9.006;2022-09-30T05:01:12;44.57;;;7.67;;
16272;SDS011;8244;50.044;9.006;2022-09-30T05:06:16;23.30;;;7.67;;
16272;SDS011;8244;50.044;9.006;2022-09-30T05:11:20;100.53;;;9.43;;
16272;SDS011;8244;50.044;9.006;2022-09-30T05:16:23;35.13;;;6.80;;
16272;SDS011;8244;50.044;9.006;2022-09-30T05:21:28;53.43;;;8.87;;
16272;SDS011;8244;50.044;9.006;2022-09-30T05:26:29;34.43;;;7.77;;
16272;SDS011;8244;50.044;9.006;2022-09-30T05:31:32;18.20;;;7.50;;
16272;SDS011;8244;50.044;9.006;2022-09-30T05:36:35;11.60;;;6.17;;
16272;SDS011;8244;50.044;9.006;2022-09-30T05:41:36;11.63;;;6.20;;
16272;SDS011;8244;50.044;9.006;2022-09-30T05:46:38;13.60;;;5.97;;
16272;SDS011;8244;50.044;9.006;2022-09-30T05:51:41;13.70;;;6.53;;
16272;SDS011;8244;50.044;9.006;2022-09-30T05:56:43;18.23;;;6.40;;
16272;SDS011;8244;50.044;9.006;2022-09-30T06:01:44;11.97;;;6.07;;
16272;SDS011;8244;50.044;9.006;2022-09-30T06:06:47;13.47;;;6.43;;
16272;SDS011;8244;50.044;9.006;2022-09-30T06:11:49;36.57;;;8.47;;
16272;SDS011;8244;50.044;9.006;2022-09-30T06:16:51;26.93;;;7.90;;
16272;SDS011;8244;50.044;9.006;2022-09-30T06:21:55;37.90;;;7.33;;
16272;SDS011;8244;50.044;9.006;2022-09-30T06:26:56;67.63;;;8.20;;
16272;SDS011;8244;50.044;9.006;2022-09-30T06:31:58;38.57;;;6.30;;
16272;SDS011;8244;50.044;9.006;2022-09-30T06:37:02;37.83;;;6.17;;
16272;SDS011;8244;50.044;9.006;2022-09-30T06:42:05;38.00;;;6.43;;
16272;SDS011;8244;50.044;9.006;2022-09-30T06:47:06;40.50;;;5.70;;
16272;SDS011;8244;50.044;9.006;2022-09-30T06:52:10;9.90;;;4.17;;
16272;SDS011;8244;50.044;9.006;2022-09-30T06:57:12;9.13;;;4.40;;
16272;SDS011;8244;50.044;9.006;2022-09-30T07:02:13;12.97;;;7.13;;
16272;SDS011;8244;50.044;9.006;2022-09-30T07:07:16;8.18;;;4.45;;
16272;SDS011;8244;50.044;9.006;2022-09-30T07:12:19;9.35;;;5.68;;
16272;SDS011;8244;50.044;9.006;2022-09-30T07:17:22;11.07;;;8.27;;
16272;SDS011;8244;50.044;9.006;2022-09-30T07:22:24;9.63;;;6.25;;
16272;SDS011;8244;50.044;9.006;2022-09-30T07:27:33;8.30;;;5.47;;
16272;SDS011;8244;50.044;9.006;2022-09-30T07:32:36;11.90;;;6.05;;
16272;SDS011;8244;50.044;9.006;2022-09-30T07:37:39;10.15;;;4.97;;
16272;SDS011;8244;50.044;9.006;2022-09-30T07:42:41;8.68;;;5.05;;
16272;SDS011;8244;50.044;9.006;2022-09-30T07:47:44;9.00;;;5.18;;
16272;SDS011;8244;50.044;9.006;2022-09-30T07:52:47;10.45;;;4.72;;
16272;SDS011;8244;50.044;9.006;2022-09-30T07:57:49;7.53;;;4.00;;
16272;SDS011;8244;50.044;9.006;2022-09-30T08:02:51;7.63;;;4.15;;
16272;SDS011;8244;50.044;9.006;2022-09-30T08:07:54;6.32;;;4.32;;
16272;SDS011;8244;50.044;9.006;2022-09-30T08:12:55;5.10;;;3.70;;
16272;SDS011;8244;50.044;9.006;2022-09-30T08:17:57;8.82;;;4.47;;
16272;SDS011;8244;50.044;9.006;2022-09-30T08:23:00;6.30;;;4.43;;
16272;SDS011;8244;50.044;9.006;2022-09-30T08:28:02;5.93;;;3.28;;
16272;SDS011;8244;50.044;9.006;2022-09-30T08:33:03;9.77;;;3.08;;
16272;SDS011;8244;50.044;9.006;2022-09-30T08:38:07;8.30;;;4.00;;
16272;SDS011;8244;50.044;9.006;2022-09-30T08:43:12;8.25;;;4.28;;
16272;SDS011;8244;50.044;9.006;2022-09-30T08:48:29;9.07;;;4.00;;
16272;SDS011;8244;50.044;9.006;2022-09-30T08:53:41;7.82;;;4.30;;
16272;SDS011;8244;50.044;9.006;2022-09-30T08:58:45;9.18;;;4.15;;
16272;SDS011;8244;50.044;9.006;2022-09-30T09:03:51;7.65;;;4.35;;
16272;SDS011;8244;50.044;9.006;2022-09-30T09:08:59;6.43;;;4.15;;
16272;SDS011;8244;50.044;9.006;2022-09-30T09:14:11;9.75;;;4.20;;
16272;SDS011;8244;50.044;9.006;2022-09-30T09:19:25;7.88;;;3.78;;
16272;SDS011;8244;50.044;9.006;2022-09-30T09:24:38;6.35;;;3.58;;
16272;SDS011;8244;50.044;9.006;2022-09-30T09:29:47;5.90;;;3.30;;
16272;SDS011;8244;50.044;9.006;2022-09-30T09:34:56;5.43;;;3.10;;
16272;SDS011;8244;50.044;9.006;2022-09-30T09:40:06;5.72;;;3.00;;
16272;SDS011;8244;50.044;9.006;2022-09-30T09:45:13;5.57;;;3.05;;
16272;SDS011;8244;50.044;9.006;2022-09-30T09:50:25;7.60;;;3.00;;
16272;SDS011;8244;50.044;9.006;2022-09-30T09:55:36;6.47;;;3.03;;
16272;SDS011;8244;50.044;9.006;2022-09-30T10:00:38;5.72;;;2.90;;
16272;SDS011;8244;50.044;9.006;2022-09-30T10:05:58;5.80;;;2.95;;
16272;SDS011;8244;50.044;9.006;2022-09-30T10:11:05;7.63;;;3.08;;
16272;SDS011;8244;50.044;9.006;2022-09-30T10:16:24;6.97;;;3.00;;
16272;SDS011;8244;50.044;9.006;2022-09-30T10:21:28;5.47;;;3.25;;
16272;SDS011;8244;50.044;9.006;2022-09-30T10:26:35;7.57;;;3.92;;
16272;SDS011;8244;50.044;9.006;2022-09-30T10:31:44;7.13;;;3.40;;
16272;SDS011;8244;50.044;9.006;2022-09-30T10:36:46;6.22;;;2.65;;
16272;SDS011;8244;50.044;9.006;2022-09-30T10:41:50;4.80;;;2.45;;
16272;SDS011;8244;50.044;9.006;2022-09-30T10:47:00;6.82;;;2.78;;
16272;SDS011;8244;50.044;9.006;2022-09-30T10:52:04;3.45;;;2.45;;
16272;SDS011;8244;50.044;9.006;2022-09-30T10:57:17;4.85;;;2.80;;
16272;SDS011;8244;50.044;9.006;2022-09-30T11:02:22;4.10;;;2.70;;
16272;SDS011;8244;50.044;9.006;2022-09-30T11:07:28;6.40;;;2.60;;
16272;SDS011;8244;50.044;9.006;2022-09-30T11:12:37;4.18;;;2.47;;
16272;SDS011;8244;50.044;9.006;2022-09-30T11:17:46;4.47;;;2.78;;
16272;SDS011;8244;50.044;9.006;2022-09-30T11:22:54;4.60;;;2.55;;
16272;SDS011;8244;50.044;9.006;2022-09-30T11:28:10;3.00;;;2.20;;
16272;SDS011;8244;50.044;9.006;2022-09-30T11:33:34;3.63;;;2.13;;
16272;SDS011;8244;50.044;9.006;2022-09-30T11:38:52;3.55;;;1.80;;
16272;SDS011;8244;50.044;9.006;2022-09-30T11:44:12;3.35;;;1.63;;
16272;SDS011;8244;50.044;9.006;2022-09-30T11:49:26;2.80;;;1.40;;
16272;SDS011;8244;50.044;9.006;2022-09-30T11:54:51;4.72;;;1.25;;
16272;SDS011;8244;50.044;9.006;2022-09-30T12:00:04;2.35;;;1.27;;
16272;SDS011;8244;50.044;9.006;2022-09-30T12:05:08;2.58;;;1.30;;
16272;SDS011;8244;50.044;9.006;2022-09-30T12:10:15;3.30;;;1.30;;
16272;SDS011;8244;50.044;9.006;2022-09-30T12:15:22;2.60;;;1.35;;
16272;SDS011;8244;50.044;9.006;2022-09-30T12:20:26;1.67;;;1.17;;
16272;SDS011;8244;50.044;9.006;2022-09-30T12:25:33;3.47;;;1.33;;
16272;SDS011;8244;50.044;9.006;2022-09-30T12:30:42;4.22;;;1.40;;
16272;SDS011;8244;50.044;9.006;2022-09-30T12:35:50;3.83;;;1.20;;
16272;SDS011;8244;50.044;9.006;2022-09-30T12:41:14;2.65;;;1.50;;
16272;SDS011;8244;50.044;9.006;2022-09-30T12:46:43;3.08;;;1.85;;
16272;SDS011;8244;50.044;9.006;2022-09-30T12:51:53;3.67;;;1.50;;
16272;SDS011;8244;50.044;9.006;2022-09-30T12:56:58;2.20;;;1.40;;
16272;SDS011;8244;50.044;9.006;2022-09-30T13:02:04;4.43;;;1.70;;
16272;SDS011;8244;50.044;9.006;2022-09-30T13:07:14;5.55;;;1.65;;
16272;SDS011;8244;50.044;9.006;2022-09-30T13:12:23;3.08;;;1.63;;
16272;SDS011;8244;50.044;9.006;2022-09-30T13:17:27;3.67;;;1.50;;
16272;SDS011;8244;50.044;9.006;2022-09-30T13:28:25;7.80;;;1.80;;
16272;SDS011;8244;50.044;9.006;2022-09-30T13:33:39;3.42;;;1.60;;
16272;SDS011;8244;50.044;9.006;2022-09-30T13:38:43;2.83;;;1.50;;
16272;SDS011;8244;50.044;9.006;2022-09-30T13:43:46;9.52;;;1.90;;
16272;SDS011;8244;50.044;9.006;2022-09-30T13:48:57;2.50;;;1.70;;
16272;SDS011;8244;50.044;9.006;2022-09-30T13:54:05;2.55;;;1.63;;
16272;SDS011;8244;50.044;9.006;2022-09-30T13:59:16;2.47;;;1.55;;
16272;SDS011;8244;50.044;9.006;2022-09-30T14:04:45;4.75;;;1.90;;
16272;SDS011;8244;50.044;9.006;2022-09-30T14:10:02;4.82;;;1.80;;
16272;SDS011;8244;50.044;9.006;2022-09-30T14:21:17;2.72;;;1.85;;
16272;SDS011;8244;50.044;9.006;2022-09-30T14:26:33;2.67;;;1.60;;
16272;SDS011;8244;50.044;9.006;2022-09-30T14:31:45;3.25;;;1.92;;
16272;SDS011;8244;50.044;9.006;2022-09-30T14:36:49;5.15;;;2.10;;
16272;SDS011;8244;50.044;9.006;2022-09-30T14:41:53;3.20;;;1.75;;
16272;SDS011;8244;50.044;9.006;2022-09-30T14:46:57;4.10;;;2.13;;
16272;SDS011;8244;50.044;9.006;2022-09-30T14:52:02;3.15;;;1.77;;
16272;SDS011;8244;50.044;9.006;2022-09-30T14:57:13;4.60;;;1.95;;
16272;SDS011;8244;50.044;9.006;2022-09-30T15:02:16;3.15;;;1.90;;
16272;SDS011;8244;50.044;9.006;2022-09-30T15:07:21;2.63;;;1.70;;
16272;SDS011;8244;50.044;9.006;2022-09-30T15:12:23;3.10;;;1.63;;
16272;SDS011;8244;50.044;9.006;2022-09-30T15:17:26;2.88;;;1.38;;
16272;SDS011;8244;50.044;9.006;2022-09-30T15:22:31;3.58;;;1.80;;
16272;SDS011;8244;50.044;9.006;2022-09-30T15:27:32;5.18;;;1.60;;
16272;SDS011;8244;50.044;9.006;2022-09-30T15:32:36;3.60;;;2.05;;
16272;SDS011;8244;50.044;9.006;2022-09-30T15:37:39;4.95;;;1.92;;
16272;SDS011;8244;50.044;9.006;2022-09-30T15:42:42;6.57;;;1.98;;
16272;SDS011;8244;50.044;9.006;2022-09-30T15:47:52;4.13;;;2.20;;
16272;SDS011;8244;50.044;9.006;2022-09-30T15:52:57;3.92;;;1.80;;
16272;SDS011;8244;50.044;9.006;2022-09-30T15:58:04;7.97;;;2.58;;
16272;SDS011;8244;50.044;9.006;2022-09-30T16:03:33;4.15;;;2.00;;
16272;SDS011;8244;50.044;9.006;2022-09-30T16:08:42;4.97;;;2.20;;
16272;SDS011;8244;50.044;9.006;2022-09-30T16:13:46;5.93;;;2.50;;
16272;SDS011;8244;50.044;9.006;2022-09-30T16:18:49;3.80;;;2.28;;
16272;SDS011;8244;50.044;9.006;2022-09-30T16:23:53;3.72;;;2.10;;
16272;SDS011;8244;50.044;9.006;2022-09-30T16:28:55;3.38;;;1.83;;
16272;SDS011;8244;50.044;9.006;2022-09-30T16:34:02;9.18;;;2.40;;
16272;SDS011;8244;50.044;9.006;2022-09-30T16:39:05;4.25;;;2.20;;
16272;SDS011;8244;50.044;9.006;2022-09-30T16:44:06;5.05;;;2.10;;
16272;SDS011;8244;50.044;9.006;2022-09-30T16:49:10;5.00;;;1.92;;
16272;SDS011;8244;50.044;9.006;2022-09-30T16:54:15;3.72;;;2.05;;
16272;SDS011;8244;50.044;9.006;2022-09-30T16:59:17;4.53;;;2.47;;
16272;SDS011;8244;50.044;9.006;2022-09-30T17:04:19;5.72;;;2.80;;
16272;SDS011;8244;50.044;9.006;2022-09-30T17:09:22;7.57;;;2.40;;
16272;SDS011;8244;50.044;9.006;2022-09-30T17:14:24;6.10;;;2.63;;
16272;SDS011;8244;50.044;9.006;2022-09-30T17:19:26;6.18;;;2.58;;
16272;SDS011;8244;50.044;9.006;2022-09-30T17:24:30;4.50;;;2.58;;
16272;SDS011;8244;50.044;9.006;2022-09-30T17:29:32;7.80;;;2.97;;
16272;SDS011;8244;50.044;9.006;2022-09-30T17:34:37;5.97;;;3.20;;
16272;SDS011;8244;50.044;9.006;2022-09-30T17:39:41;8.25;;;3.33;;
16272;SDS011;8244;50.044;9.006;2022-09-30T17:44:43;6.38;;;4.22;;
16272;SDS011;8244;50.044;9.006;2022-09-30T17:49:45;6.85;;;3.60;;
16272;SDS011;8244;50.044;9.006;2022-09-30T17:54:48;4.30;;;3.10;;
16272;SDS011;8244;50.044;9.006;2022-09-30T17:59:49;10.02;;;3.90;;
16272;SDS011;8244;50.044;9.006;2022-09-30T18:04:51;11.02;;;6.65;;
16272;SDS011;8244;50.044;9.006;2022-09-30T18:09:54;11.30;;;4.57;;
16272;SDS011;8244;50.044;9.006;2022-09-30T18:14:56;11.45;;;6.05;;
16272;SDS011;8244;50.044;9.006;2022-09-30T18:19:58;17.92;;;11.88;;
16272;SDS011;8244;50.044;9.006;2022-09-30T18:25:02;14.35;;;8.15;;
16272;SDS011;8244;50.044;9.006;2022-09-30T18:30:23;10.43;;;5.32;;
16272;SDS011;8244;50.044;9.006;2022-09-30T18:35:25;7.72;;;4.55;;
16272;SDS011;8244;50.044;9.006;2022-09-30T18:40:30;12.45;;;4.95;;
16272;SDS011;8244;50.044;9.006;2022-09-30T18:45:32;10.65;;;4.85;;
16272;SDS011;8244;50.044;9.006;2022-09-30T18:50:37;10.45;;;5.47;;
16272;SDS011;8244;50.044;9.006;2022-09-30T18:55:40;9.32;;;4.82;;
16272;SDS011;8244;50.044;9.006;2022-09-30T19:00:43;10.40;;;6.35;;
16272;SDS011;8244;50.044;9.006;2022-09-30T19:05:45;12.77;;;6.32;;
16272;SDS011;8244;50.044;9.006;2022-09-30T19:10:48;11.00;;;5.90;;
16272;SDS011;8244;50.044;9.006;2022-09-30T19:15:50;11.55;;;6.40;;
16272;SDS011;8244;50.044;9.006;2022-09-30T19:20:52;12.07;;;6.32;;
16272;SDS011;8244;50.044;9.006;2022-09-30T19:25:55;15.73;;;7.20;;
16272;SDS011;8244;50.044;9.006;2022-09-30T19:30:57;15.63;;;8.25;;
16272;SDS011;8244;50.044;9.006;2022-09-30T19:36:03;12.80;;;7.63;;
16272;SDS011;8244;50.044;9.006;2022-09-30T19:41:08;16.63;;;9.45;;
16272;SDS011;8244;50.044;9.006;2022-09-30T19:46:10;14.68;;;8.18;;
16272;SDS011;8244;50.044;9.006;2022-09-30T19:51:12;11.60;;;7.43;;
16272;SDS011;8244;50.044;9.006;2022-09-30T19:56:17;11.23;;;6.97;;
16272;SDS011;8244;50.044;9.006;2022-09-30T20:01:22;16.52;;;7.20;;
16272;SDS011;8244;50.044;9.006;2022-09-30T20:06:27;14.73;;;7.75;;
16272;SDS011;8244;50.044;9.006;2022-09-30T20:11:30;15.07;;;8.05;;
16272;SDS011;8244;50.044;9.006;2022-09-30T20:16:33;12.48;;;8.23;;
16272;SDS011;8244;50.044;9.006;2022-09-30T20:21:35;15.88;;;8.50;;
16272;SDS011;8244;50.044;9.006;2022-09-30T20:26:38;16.38;;;7.93;;
16272;SDS011;8244;50.044;9.006;2022-09-30T20:31:41;14.10;;;8.40;;
16272;SDS011;8244;50.044;9.006;2022-09-30T20:36:43;12.68;;;7.43;;
16272;SDS011;8244;50.044;9.006;2022-09-30T20:41:46;12.93;;;7.78;;
16272;SDS011;8244;50.044;9.006;2022-09-30T20:46:48;11.95;;;8.15;;
16272;SDS011;8244;50.044;9.006;2022-09-30T20:51:49;14.25;;;8.05;;
16272;SDS011;8244;50.044;9.006;2022-09-30T20:56:52;15.65;;;8.18;;
16272;SDS011;8244;50.044;9.006;2022-09-30T21:01:54;14.63;;;8.60;;
16272;SDS011;8244;50.044;9.006;2022-09-30T21:06:57;12.35;;;7.75;;
16272;SDS011;8244;50.044;9.006;2022-09-30T21:12:01;13.05;;;8.30;;
16272;SDS011;8244;50.044;9.006;2022-09-30T21:17:03;15.52;;;8.50;;
16272;SDS011;8244;50.044;9.006;2022-09-30T21:22:07;14.23;;;8.50;;
16272;SDS011;8244;50.044;9.006;2022-09-30T21:27:10;17.33;;;8.55;;
16272;SDS011;8244;50.044;9.006;2022-09-30T21:32:12;15.18;;;8.15;;
16272;SDS011;8244;50.044;9.006;2022-09-30T21:37:14;16.58;;;8.13;;
16272;SDS011;8244;50.044;9.006;2022-09-30T21:42:17;12.80;;;7.75;;
16272;SDS011;8244;50.044;9.006;2022-09-30T21:47:19;13.73;;;8.52;;
16272;SDS011;8244;50.044;9.006;2022-09-30T21:52:20;16.20;;;8.75;;
16272;SDS011;8244;50.044;9.006;2022-09-30T21:57:23;15.27;;;8.65;;
16272;SDS011;8244;50.044;9.006;2022-09-30T22:02:25;15.35;;;8.60;;
16272;SDS011;8244;50.044;9.006;2022-09-30T22:07:27;15.23;;;8.57;;
16272;SDS011;8244;50.044;9.006;2022-09-30T22:12:30;14.73;;;7.35;;
16272;SDS011;8244;50.044;9.006;2022-09-30T22:17:32;13.52;;;8.20;;
16272;SDS011;8244;50.044;9.006;2022-09-30T22:22:34;14.90;;;8.02;;
16272;SDS011;8244;50.044;9.006;2022-09-30T22:27:37;13.15;;;8.02;;
16272;SDS011;8244;50.044;9.006;2022-09-30T22:32:38;13.68;;;8.13;;
16272;SDS011;8244;50.044;9.006;2022-09-30T22:37:40;13.40;;;8.05;;
16272;SDS011;8244;50.044;9.006;2022-09-30T22:43:01;14.60;;;7.70;;
16272;SDS011;8244;50.044;9.006;2022-09-30T22:48:03;13.65;;;7.80;;
16272;SDS011;8244;50.044;9.006;2022-09-30T22:53:05;12.32;;;7.65;;
16272;SDS011;8244;50.044;9.006;2022-09-30T22:58:08;13.95;;;8.35;;
16272;SDS011;8244;50.044;9.006;2022-09-30T23:03:10;12.80;;;7.15;;
16272;SDS011;8244;50.044;9.006;2022-09-30T23:08:12;14.27;;;7.78;;
16272;SDS011;8244;50.044;9.006;2022-09-30T23:13:15;15.32;;;8.10;;
16272;SDS011;8244;50.044;9.006;2022-09-30T23:18:19;17.25;;;8.57;;
16272;SDS011;8244;50.044;9.006;2022-09-30T23:23:20;15.13;;;8.30;;
16272;SDS011;8244;50.044;9.006;2022-09-30T23:28:23;14.70;;;7.85;;
16272;SDS011;8244;50.044;9.006;2022-09-30T23:33:25;13.85;;;8.13;;
16272;SDS011;8244;50.044;9.006;2022-09-30T23:38:27;15.57;;;8.15;;
16272;SDS011;8244;50.044;9.006;2022-09-30T23:43:31;13.10;;;8.20;;
16272;SDS011;8244;50.044;9.006;2022-09-30T23:48:34;13.40;;;8.02;;
16272;SDS011;8244;50.044;9.006;2022-09-30T23:53:37;14.15;;;7.82;;
16272;SDS011;8244;50.044;9.006;2022-09-30T23:58:41;12.43;;;7.80;;
